Skunkhollow, Arkansas
Current Conditions -  °F | °C
As of 9:58 PM on Saturday 24 Jan 2015 (Local Time) from KLRF Reporting Station
Clear Clear  
Wind Chill: 37°   Ceiling: Unl
Heat Index: 37°   Visibility: 10mi
Dew Point: 30°   Wind: 2mph
Humidity: 74%   Direction: 240°WSW
Pressure: 29.91"   Gusts: NA
Location:  35.0822°N, 92.366°W
Report Text: KLRF 250358Z AUTO 24002KT 10SM CLR 03/M01 A2991 RMK AO2 SLP133 T00301013
Loading
Personal Weather Stations






























Interactive Weather Map New forecast layout! Learn more

10-Day Weather Forecast

Advertisements
Track Severe Weather on mobile